sensor_id;sensor_type;location;lat;lon;timestamp;temperature;humidity
254;DHT22;590;48.772;8.846;2022-09-30T00:01:33;9.40;99.90
254;DHT22;590;48.772;8.846;2022-09-30T00:04:02;9.50;99.90
254;DHT22;590;48.772;8.846;2022-09-30T00:06:31;9.50;99.90
254;DHT22;590;48.772;8.846;2022-09-30T00:09:01;9.50;99.90
254;DHT22;590;48.772;8.846;2022-09-30T00:11:31;9.50;99.90
254;DHT22;590;48.772;8.846;2022-09-30T00:14:01;9.50;99.90
254;DHT22;590;48.772;8.846;2022-09-30T00:16:36;9.50;99.90
254;DHT22;590;48.772;8.846;2022-09-30T00:19:04;9.50;99.90
254;DHT22;590;48.772;8.846;2022-09-30T00:21:32;9.50;99.90
254;DHT22;590;48.772;8.846;2022-09-30T00:24:01;9.60;99.90
254;DHT22;590;48.772;8.846;2022-09-30T00:26:30;9.60;99.90
254;DHT22;590;48.772;8.846;2022-09-30T00:29:00;9.70;99.90
254;DHT22;590;48.772;8.846;2022-09-30T00:31:31;9.70;99.90
254;DHT22;590;48.772;8.846;2022-09-30T00:34:00;9.70;99.90
254;DHT22;590;48.772;8.846;2022-09-30T00:36:37;9.70;99.90
254;DHT22;590;48.772;8.846;2022-09-30T00:39:06;9.70;99.90
254;DHT22;590;48.772;8.846;2022-09-30T00:41:34;9.70;99.90
254;DHT22;590;48.772;8.846;2022-09-30T00:47:20;9.70;99.90
254;DHT22;590;48.772;8.846;2022-09-30T00:49:52;9.70;99.90
254;DHT22;590;48.772;8.846;2022-09-30T00:52:22;9.70;99.90
254;DHT22;590;48.772;8.846;2022-09-30T00:54:50;9.70;99.90
254;DHT22;590;48.772;8.846;2022-09-30T00:57:19;9.80;99.90
254;DHT22;590;48.772;8.846;2022-09-30T00:59:49;9.80;99.90
254;DHT22;590;48.772;8.846;2022-09-30T01:02:19;9.80;99.90
254;DHT22;590;48.772;8.846;2022-09-30T01:04:47;9.80;99.90
254;DHT22;590;48.772;8.846;2022-09-30T01:07:15;9.70;99.90
254;DHT22;590;48.772;8.846;2022-09-30T01:09:44;9.70;99.90
254;DHT22;590;48.772;8.846;2022-09-30T01:12:15;9.70;99.90
254;DHT22;590;48.772;8.846;2022-09-30T01:14:45;9.70;99.90
254;DHT22;590;48.772;8.846;2022-09-30T01:17:21;9.70;99.90
254;DHT22;590;48.772;8.846;2022-09-30T01:23:01;9.70;99.90
254;DHT22;590;48.772;8.846;2022-09-30T01:25:57;9.70;99.90
254;DHT22;590;48.772;8.846;2022-09-30T01:29:07;9.70;99.90
254;DHT22;590;48.772;8.846;2022-09-30T01:31:48;9.70;99.90
254;DHT22;590;48.772;8.846;2022-09-30T01:34:32;9.70;99.90
254;DHT22;590;48.772;8.846;2022-09-30T01:37:08;9.70;99.90
254;DHT22;590;48.772;8.846;2022-09-30T01:39:47;9.70;99.90
254;DHT22;590;48.772;8.846;2022-09-30T01:42:21;9.70;99.90
254;DHT22;590;48.772;8.846;2022-09-30T01:44:56;9.70;99.90
254;DHT22;590;48.772;8.846;2022-09-30T01:47:32;9.70;99.90
254;DHT22;590;48.772;8.846;2022-09-30T01:50:04;9.70;99.90
254;DHT22;590;48.772;8.846;2022-09-30T01:52:38;9.70;99.90
254;DHT22;590;48.772;8.846;2022-09-30T01:55:12;9.60;99.90
254;DHT22;590;48.772;8.846;2022-09-30T01:57:49;9.60;99.90
254;DHT22;590;48.772;8.846;2022-09-30T02:00:19;9.60;99.90
254;DHT22;590;48.772;8.846;2022-09-30T02:02:51;9.60;99.90
254;DHT22;590;48.772;8.846;2022-09-30T02:05:25;9.60;99.90
254;DHT22;590;48.772;8.846;2022-09-30T02:07:59;9.60;99.90
254;DHT22;590;48.772;8.846;2022-09-30T02:10:31;9.50;99.90
254;DHT22;590;48.772;8.846;2022-09-30T02:13:06;9.50;99.90
254;DHT22;590;48.772;8.846;2022-09-30T02:15:39;9.40;99.90
254;DHT22;590;48.772;8.846;2022-09-30T02:18:14;9.40;99.90
254;DHT22;590;48.772;8.846;2022-09-30T02:20:49;9.40;99.90
254;DHT22;590;48.772;8.846;2022-09-30T02:23:22;9.40;99.90
254;DHT22;590;48.772;8.846;2022-09-30T02:25:58;9.40;99.90
254;DHT22;590;48.772;8.846;2022-09-30T02:28:32;9.40;99.90
254;DHT22;590;48.772;8.846;2022-09-30T02:31:03;9.50;99.90
254;DHT22;590;48.772;8.846;2022-09-30T02:33:37;9.50;99.90
254;DHT22;590;48.772;8.846;2022-09-30T02:36:09;9.50;99.90
254;DHT22;590;48.772;8.846;2022-09-30T02:38:42;9.50;99.90
254;DHT22;590;48.772;8.846;2022-09-30T02:41:13;9.50;99.90
254;DHT22;590;48.772;8.846;2022-09-30T02:43:42;9.40;99.90
254;DHT22;590;48.772;8.846;2022-09-30T02:46:18;9.40;99.90
254;DHT22;590;48.772;8.846;2022-09-30T02:48:57;9.40;99.90
254;DHT22;590;48.772;8.846;2022-09-30T02:51:31;9.40;99.90
254;DHT22;590;48.772;8.846;2022-09-30T02:54:14;9.40;99.90
254;DHT22;590;48.772;8.846;2022-09-30T02:56:50;9.40;99.90
254;DHT22;590;48.772;8.846;2022-09-30T02:59:20;9.40;99.90
254;DHT22;590;48.772;8.846;2022-09-30T03:01:49;9.40;99.90
254;DHT22;590;48.772;8.846;2022-09-30T03:04:22;9.40;99.90
254;DHT22;590;48.772;8.846;2022-09-30T03:06:52;9.40;99.90
254;DHT22;590;48.772;8.846;2022-09-30T03:09:23;9.40;99.90
254;DHT22;590;48.772;8.846;2022-09-30T03:11:58;9.40;99.90
254;DHT22;590;48.772;8.846;2022-09-30T03:14:36;9.40;99.90
254;DHT22;590;48.772;8.846;2022-09-30T03:17:25;9.40;99.90
254;DHT22;590;48.772;8.846;2022-09-30T03:20:18;9.30;99.90
254;DHT22;590;48.772;8.846;2022-09-30T03:23:02;9.30;99.90
254;DHT22;590;48.772;8.846;2022-09-30T03:25:44;9.30;99.90
254;DHT22;590;48.772;8.846;2022-09-30T03:28:21;9.30;99.90
254;DHT22;590;48.772;8.846;2022-09-30T03:30:57;9.30;99.90
254;DHT22;590;48.772;8.846;2022-09-30T03:33:35;9.30;99.90
254;DHT22;590;48.772;8.846;2022-09-30T03:36:10;9.30;99.90
254;DHT22;590;48.772;8.846;2022-09-30T03:38:47;9.30;99.90
254;DHT22;590;48.772;8.846;2022-09-30T03:41:21;9.30;99.90
254;DHT22;590;48.772;8.846;2022-09-30T03:43:59;9.30;99.90
254;DHT22;590;48.772;8.846;2022-09-30T03:46:33;9.30;99.90
254;DHT22;590;48.772;8.846;2022-09-30T03:49:04;9.30;99.90
254;DHT22;590;48.772;8.846;2022-09-30T03:51:36;9.30;99.90
254;DHT22;590;48.772;8.846;2022-09-30T03:54:07;9.30;99.90
254;DHT22;590;48.772;8.846;2022-09-30T03:56:37;9.40;99.90
254;DHT22;590;48.772;8.846;2022-09-30T03:59:10;9.40;99.90
254;DHT22;590;48.772;8.846;2022-09-30T04:01:39;9.40;99.90
254;DHT22;590;48.772;8.846;2022-09-30T04:04:07;9.40;99.90
254;DHT22;590;48.772;8.846;2022-09-30T04:06:36;9.40;99.90
254;DHT22;590;48.772;8.846;2022-09-30T04:09:04;9.40;99.90
254;DHT22;590;48.772;8.846;2022-09-30T04:11:32;9.30;99.90
254;DHT22;590;48.772;8.846;2022-09-30T04:14:00;9.30;99.90
254;DHT22;590;48.772;8.846;2022-09-30T04:16:29;9.30;99.90
254;DHT22;590;48.772;8.846;2022-09-30T04:18:57;9.30;99.90
254;DHT22;590;48.772;8.846;2022-09-30T04:21:25;9.30;99.90
254;DHT22;590;48.772;8.846;2022-09-30T04:23:55;9.30;99.90
254;DHT22;590;48.772;8.846;2022-09-30T04:26:23;9.30;99.90
254;DHT22;590;48.772;8.846;2022-09-30T04:28:51;9.30;99.90
254;DHT22;590;48.772;8.846;2022-09-30T04:31:20;9.30;99.90
254;DHT22;590;48.772;8.846;2022-09-30T04:33:48;9.20;99.90
254;DHT22;590;48.772;8.846;2022-09-30T04:36:17;9.20;99.90
254;DHT22;590;48.772;8.846;2022-09-30T04:38:45;9.20;99.90
254;DHT22;590;48.772;8.846;2022-09-30T04:41:15;9.20;99.90
254;DHT22;590;48.772;8.846;2022-09-30T04:43:44;9.20;99.90
254;DHT22;590;48.772;8.846;2022-09-30T04:46:12;9.20;99.90
254;DHT22;590;48.772;8.846;2022-09-30T04:48:41;9.20;99.90
254;DHT22;590;48.772;8.846;2022-09-30T04:51:11;9.30;99.90
254;DHT22;590;48.772;8.846;2022-09-30T04:53:40;9.30;99.90
254;DHT22;590;48.772;8.846;2022-09-30T04:56:08;9.30;99.90
254;DHT22;590;48.772;8.846;2022-09-30T04:58:38;9.30;99.90
254;DHT22;590;48.772;8.846;2022-09-30T05:01:07;9.30;99.90
254;DHT22;590;48.772;8.846;2022-09-30T05:03:36;9.30;99.90
254;DHT22;590;48.772;8.846;2022-09-30T05:06:05;9.30;99.90
254;DHT22;590;48.772;8.846;2022-09-30T05:08:33;9.30;99.90
254;DHT22;590;48.772;8.846;2022-09-30T05:11:03;9.30;99.90
254;DHT22;590;48.772;8.846;2022-09-30T05:13:35;9.20;99.90
254;DHT22;590;48.772;8.846;2022-09-30T05:16:06;9.20;99.90
254;DHT22;590;48.772;8.846;2022-09-30T05:18:36;9.20;99.90
254;DHT22;590;48.772;8.846;2022-09-30T05:21:05;9.10;99.90
254;DHT22;590;48.772;8.846;2022-09-30T05:23:33;9.10;99.90
254;DHT22;590;48.772;8.846;2022-09-30T05:26:01;9.20;99.90
254;DHT22;590;48.772;8.846;2022-09-30T05:28:34;9.20;99.90
254;DHT22;590;48.772;8.846;2022-09-30T05:31:04;9.20;99.90
254;DHT22;590;48.772;8.846;2022-09-30T05:33:33;9.20;99.90
254;DHT22;590;48.772;8.846;2022-09-30T05:36:03;9.10;99.90
254;DHT22;590;48.772;8.846;2022-09-30T05:38:31;9.10;99.90
254;DHT22;590;48.772;8.846;2022-09-30T05:41:05;9.10;99.90
254;DHT22;590;48.772;8.846;2022-09-30T05:43:34;9.10;99.90
254;DHT22;590;48.772;8.846;2022-09-30T05:46:05;9.20;99.90
254;DHT22;590;48.772;8.846;2022-09-30T05:48:33;9.20;99.90
254;DHT22;590;48.772;8.846;2022-09-30T05:51:01;9.20;99.90
254;DHT22;590;48.772;8.846;2022-09-30T05:53:30;9.30;99.90
254;DHT22;590;48.772;8.846;2022-09-30T05:55:59;9.40;99.90
254;DHT22;590;48.772;8.846;2022-09-30T05:58:27;9.40;99.90
254;DHT22;590;48.772;8.846;2022-09-30T06:00:55;9.40;99.90
254;DHT22;590;48.772;8.846;2022-09-30T06:03:30;9.40;99.90
254;DHT22;590;48.772;8.846;2022-09-30T06:05:58;9.40;99.90
254;DHT22;590;48.772;8.846;2022-09-30T06:08:27;9.50;99.90
254;DHT22;590;48.772;8.846;2022-09-30T06:10:55;9.50;99.90
254;DHT22;590;48.772;8.846;2022-09-30T06:13:24;9.50;99.90
254;DHT22;590;48.772;8.846;2022-09-30T06:15:56;9.60;99.90
254;DHT22;590;48.772;8.846;2022-09-30T06:18:25;9.60;99.90
254;DHT22;590;48.772;8.846;2022-09-30T06:20:56;9.70;99.90
254;DHT22;590;48.772;8.846;2022-09-30T06:23:24;9.80;99.90
254;DHT22;590;48.772;8.846;2022-09-30T06:25:53;9.80;99.90
254;DHT22;590;48.772;8.846;2022-09-30T06:28:22;9.90;99.90
254;DHT22;590;48.772;8.846;2022-09-30T06:30:50;9.90;99.90
254;DHT22;590;48.772;8.846;2022-09-30T06:33:20;9.90;99.90
254;DHT22;590;48.772;8.846;2022-09-30T06:35:49;10.00;99.90
254;DHT22;590;48.772;8.846;2022-09-30T06:38:19;10.10;99.90
254;DHT22;590;48.772;8.846;2022-09-30T06:40:49;10.10;99.90
254;DHT22;590;48.772;8.846;2022-09-30T06:43:17;10.10;99.90
254;DHT22;590;48.772;8.846;2022-09-30T06:45:45;10.20;99.90
254;DHT22;590;48.772;8.846;2022-09-30T06:48:13;10.30;99.90
254;DHT22;590;48.772;8.846;2022-09-30T06:50:50;10.30;99.90
254;DHT22;590;48.772;8.846;2022-09-30T06:53:29;10.40;99.90
254;DHT22;590;48.772;8.846;2022-09-30T06:55:57;10.40;99.90
254;DHT22;590;48.772;8.846;2022-09-30T06:58:25;10.40;99.90
254;DHT22;590;48.772;8.846;2022-09-30T07:00:56;10.50;99.90
254;DHT22;590;48.772;8.846;2022-09-30T07:03:27;10.50;99.90
254;DHT22;590;48.772;8.846;2022-09-30T07:05:56;10.50;99.90
254;DHT22;590;48.772;8.846;2022-09-30T07:08:25;10.60;99.90
254;DHT22;590;48.772;8.846;2022-09-30T07:10:56;10.60;99.90
254;DHT22;590;48.772;8.846;2022-09-30T07:13:24;10.70;99.90
254;DHT22;590;48.772;8.846;2022-09-30T07:15:52;10.80;99.90
254;DHT22;590;48.772;8.846;2022-09-30T07:18:23;10.80;99.90
254;DHT22;590;48.772;8.846;2022-09-30T07:20:55;10.80;99.90
254;DHT22;590;48.772;8.846;2022-09-30T07:23:23;10.80;99.90
254;DHT22;590;48.772;8.846;2022-09-30T07:25:54;10.80;99.90
254;DHT22;590;48.772;8.846;2022-09-30T07:28:25;10.80;99.90
254;DHT22;590;48.772;8.846;2022-09-30T07:31:01;10.80;99.90
254;DHT22;590;48.772;8.846;2022-09-30T07:33:49;10.80;99.90
254;DHT22;590;48.772;8.846;2022-09-30T07:36:19;10.80;99.90
254;DHT22;590;48.772;8.846;2022-09-30T07:38:58;10.80;99.90
254;DHT22;590;48.772;8.846;2022-09-30T07:41:34;10.80;99.90
254;DHT22;590;48.772;8.846;2022-09-30T07:44:06;10.90;99.90
254;DHT22;590;48.772;8.846;2022-09-30T07:46:35;10.90;99.90
254;DHT22;590;48.772;8.846;2022-09-30T07:49:07;11.00;99.90
254;DHT22;590;48.772;8.846;2022-09-30T07:51:37;11.10;99.90
254;DHT22;590;48.772;8.846;2022-09-30T07:54:08;11.20;99.90
254;DHT22;590;48.772;8.846;2022-09-30T07:56:36;11.20;99.90
254;DHT22;590;48.772;8.846;2022-09-30T07:59:27;11.40;99.90
254;DHT22;590;48.772;8.846;2022-09-30T08:01:55;11.50;99.90
254;DHT22;590;48.772;8.846;2022-09-30T08:04:24;11.60;99.90
254;DHT22;590;48.772;8.846;2022-09-30T08:06:55;11.70;99.90
254;DHT22;590;48.772;8.846;2022-09-30T08:09:24;11.80;99.90
254;DHT22;590;48.772;8.846;2022-09-30T08:11:54;11.90;99.90
254;DHT22;590;48.772;8.846;2022-09-30T08:14:23;12.00;99.90
254;DHT22;590;48.772;8.846;2022-09-30T08:16:53;12.20;99.90
254;DHT22;590;48.772;8.846;2022-09-30T08:19:22;12.40;99.90
254;DHT22;590;48.772;8.846;2022-09-30T08:21:51;12.40;99.90
254;DHT22;590;48.772;8.846;2022-09-30T08:24:21;12.60;99.90
254;DHT22;590;48.772;8.846;2022-09-30T08:26:49;12.80;99.90
254;DHT22;590;48.772;8.846;2022-09-30T08:29:18;12.90;99.90
254;DHT22;590;48.772;8.846;2022-09-30T08:32:07;13.00;99.90
254;DHT22;590;48.772;8.846;2022-09-30T08:34:35;13.00;99.90
254;DHT22;590;48.772;8.846;2022-09-30T08:37:03;12.90;99.90
254;DHT22;590;48.772;8.846;2022-09-30T08:39:35;13.10;99.90
254;DHT22;590;48.772;8.846;2022-09-30T08:42:13;13.20;99.90
254;DHT22;590;48.772;8.846;2022-09-30T08:45:11;13.40;99.90
254;DHT22;590;48.772;8.846;2022-09-30T08:47:48;13.60;99.90
254;DHT22;590;48.772;8.846;2022-09-30T08:50:22;13.70;99.90
254;DHT22;590;48.772;8.846;2022-09-30T08:52:58;13.90;99.90
254;DHT22;590;48.772;8.846;2022-09-30T08:55:32;14.00;99.90
254;DHT22;590;48.772;8.846;2022-09-30T08:58:03;14.10;97.90
254;DHT22;590;48.772;8.846;2022-09-30T09:00:32;14.30;97.90
254;DHT22;590;48.772;8.846;2022-09-30T09:03:02;14.50;96.30
254;DHT22;590;48.772;8.846;2022-09-30T09:05:40;14.60;95.60
254;DHT22;590;48.772;8.846;2022-09-30T09:08:25;14.80;94.60
254;DHT22;590;48.772;8.846;2022-09-30T09:11:02;14.90;92.70
254;DHT22;590;48.772;8.846;2022-09-30T09:13:39;14.90;92.30
254;DHT22;590;48.772;8.846;2022-09-30T09:16:19;15.00;91.80
254;DHT22;590;48.772;8.846;2022-09-30T09:18:57;15.20;91.00
254;DHT22;590;48.772;8.846;2022-09-30T09:21:33;15.40;90.40
254;DHT22;590;48.772;8.846;2022-09-30T09:24:13;15.60;89.00
254;DHT22;590;48.772;8.846;2022-09-30T09:26:41;15.70;84.10
254;DHT22;590;48.772;8.846;2022-09-30T09:29:29;15.90;84.70
254;DHT22;590;48.772;8.846;2022-09-30T09:32:00;16.00;81.30
254;DHT22;590;48.772;8.846;2022-09-30T09:34:30;16.10;77.90
254;DHT22;590;48.772;8.846;2022-09-30T09:37:13;16.10;73.30
254;DHT22;590;48.772;8.846;2022-09-30T09:39:57;16.20;74.00
254;DHT22;590;48.772;8.846;2022-09-30T09:42:45;16.20;69.80
254;DHT22;590;48.772;8.846;2022-09-30T09:45:22;16.30;70.80
254;DHT22;590;48.772;8.846;2022-09-30T09:47:52;16.40;71.10
254;DHT22;590;48.772;8.846;2022-09-30T09:50:31;16.60;71.20
254;DHT22;590;48.772;8.846;2022-09-30T09:53:16;16.70;66.90
254;DHT22;590;48.772;8.846;2022-09-30T09:55:48;16.90;65.70
254;DHT22;590;48.772;8.846;2022-09-30T09:58:20;17.00;66.70
254;DHT22;590;48.772;8.846;2022-09-30T10:00:48;17.20;66.90
254;DHT22;590;48.772;8.846;2022-09-30T10:03:36;17.40;65.60
254;DHT22;590;48.772;8.846;2022-09-30T10:06:07;17.50;60.50
254;DHT22;590;48.772;8.846;2022-09-30T10:08:37;17.50;43.60
254;DHT22;590;48.772;8.846;2022-09-30T10:11:15;17.50;45.40
254;DHT22;590;48.772;8.846;2022-09-30T10:13:44;17.40;45.30
254;DHT22;590;48.772;8.846;2022-09-30T10:16:26;17.30;48.50
254;DHT22;590;48.772;8.846;2022-09-30T10:18:55;17.30;47.20
254;DHT22;590;48.772;8.846;2022-09-30T10:21:27;17.20;47.90
254;DHT22;590;48.772;8.846;2022-09-30T10:23:55;17.10;47.30
254;DHT22;590;48.772;8.846;2022-09-30T10:26:26;17.00;47.30
254;DHT22;590;48.772;8.846;2022-09-30T10:28:56;17.00;47.90
254;DHT22;590;48.772;8.846;2022-09-30T10:31:27;16.90;48.50
254;DHT22;590;48.772;8.846;2022-09-30T10:34:00;17.00;47.50
254;DHT22;590;48.772;8.846;2022-09-30T10:36:34;17.10;44.70
254;DHT22;590;48.772;8.846;2022-09-30T10:39:05;17.20;43.70
254;DHT22;590;48.772;8.846;2022-09-30T10:41:35;17.50;45.60
254;DHT22;590;48.772;8.846;2022-09-30T10:44:06;17.70;40.20
254;DHT22;590;48.772;8.846;2022-09-30T10:46:40;17.80;38.60
254;DHT22;590;48.772;8.846;2022-09-30T10:49:10;17.90;40.70
254;DHT22;590;48.772;8.846;2022-09-30T10:51:44;17.80;34.10
254;DHT22;590;48.772;8.846;2022-09-30T10:54:34;17.80;31.60
254;DHT22;590;48.772;8.846;2022-09-30T10:57:03;17.80;36.20
254;DHT22;590;48.772;8.846;2022-09-30T10:59:33;17.80;37.50
254;DHT22;590;48.772;8.846;2022-09-30T11:02:14;17.90;39.40
254;DHT22;590;48.772;8.846;2022-09-30T11:04:58;18.10;38.80
254;DHT22;590;48.772;8.846;2022-09-30T11:07:32;18.30;31.90
254;DHT22;590;48.772;8.846;2022-09-30T11:10:07;18.30;26.70
254;DHT22;590;48.772;8.846;2022-09-30T11:12:43;18.20;27.90
254;DHT22;590;48.772;8.846;2022-09-30T11:15:18;18.10;29.70
254;DHT22;590;48.772;8.846;2022-09-30T11:17:52;18.10;29.80
254;DHT22;590;48.772;8.846;2022-09-30T11:20:25;17.80;23.50
254;DHT22;590;48.772;8.846;2022-09-30T11:23:00;17.40;24.80
254;DHT22;590;48.772;8.846;2022-09-30T11:25:37;17.30;26.30
254;DHT22;590;48.772;8.846;2022-09-30T11:28:27;17.20;27.70
254;DHT22;590;48.772;8.846;2022-09-30T11:31:06;17.20;25.70
254;DHT22;590;48.772;8.846;2022-09-30T11:33:46;17.10;26.80
254;DHT22;590;48.772;8.846;2022-09-30T11:36:25;17.20;27.20
254;DHT22;590;48.772;8.846;2022-09-30T11:41:52;17.80;22.60
254;DHT22;590;48.772;8.846;2022-09-30T11:44:28;17.90;15.90
254;DHT22;590;48.772;8.846;2022-09-30T11:47:24;17.90;15.00
254;DHT22;590;48.772;8.846;2022-09-30T11:50:17;18.00;15.30
254;DHT22;590;48.772;8.846;2022-09-30T11:52:56;18.20;15.30
254;DHT22;590;48.772;8.846;2022-09-30T11:55:51;18.20;15.70
254;DHT22;590;48.772;8.846;2022-09-30T11:58:27;18.10;11.60
254;DHT22;590;48.772;8.846;2022-09-30T12:01:19;18.00;13.00
254;DHT22;590;48.772;8.846;2022-09-30T12:03:56;17.90;12.80
254;DHT22;590;48.772;8.846;2022-09-30T12:06:34;17.90;14.00
254;DHT22;590;48.772;8.846;2022-09-30T12:09:08;17.90;14.80
254;DHT22;590;48.772;8.846;2022-09-30T12:11:48;18.00;16.00
254;DHT22;590;48.772;8.846;2022-09-30T12:14:24;18.20;16.20
254;DHT22;590;48.772;8.846;2022-09-30T12:16:53;18.30;15.80
254;DHT22;590;48.772;8.846;2022-09-30T12:19:27;18.30;16.90
254;DHT22;590;48.772;8.846;2022-09-30T12:22:00;18.40;16.20
254;DHT22;590;48.772;8.846;2022-09-30T12:24:34;18.50;16.60
254;DHT22;590;48.772;8.846;2022-09-30T12:27:09;18.70;17.20
254;DHT22;590;48.772;8.846;2022-09-30T12:29:42;18.70;16.00
254;DHT22;590;48.772;8.846;2022-09-30T12:33:02;18.80;14.30
254;DHT22;590;48.772;8.846;2022-09-30T12:36:01;18.80;11.70
254;DHT22;590;48.772;8.846;2022-09-30T12:38:47;18.50;11.30
254;DHT22;590;48.772;8.846;2022-09-30T12:41:31;18.20;10.60
254;DHT22;590;48.772;8.846;2022-09-30T12:47:18;18.00;13.70
254;DHT22;590;48.772;8.846;2022-09-30T12:49:49;18.10;14.90
254;DHT22;590;48.772;8.846;2022-09-30T12:52:20;18.20;13.50
254;DHT22;590;48.772;8.846;2022-09-30T12:54:52;18.30;13.40
254;DHT22;590;48.772;8.846;2022-09-30T12:57:24;18.40;13.60
254;DHT22;590;48.772;8.846;2022-09-30T12:59:55;18.50;13.00
254;DHT22;590;48.772;8.846;2022-09-30T13:02:32;18.50;13.60
254;DHT22;590;48.772;8.846;2022-09-30T13:08:22;18.40;14.80
254;DHT22;590;48.772;8.846;2022-09-30T13:10:57;18.30;14.80
254;DHT22;590;48.772;8.846;2022-09-30T13:13:27;18.30;13.60
254;DHT22;590;48.772;8.846;2022-09-30T13:15:58;18.20;13.50
254;DHT22;590;48.772;8.846;2022-09-30T13:18:59;18.10;14.20
254;DHT22;590;48.772;8.846;2022-09-30T13:21:28;18.00;15.50
254;DHT22;590;48.772;8.846;2022-09-30T13:23:58;18.00;16.90
254;DHT22;590;48.772;8.846;2022-09-30T13:26:37;18.10;16.50
254;DHT22;590;48.772;8.846;2022-09-30T13:32:30;18.10;15.80
254;DHT22;590;48.772;8.846;2022-09-30T13:35:00;18.10;18.10
254;DHT22;590;48.772;8.846;2022-09-30T13:37:37;18.20;18.90
254;DHT22;590;48.772;8.846;2022-09-30T13:40:17;18.30;19.90
254;DHT22;590;48.772;8.846;2022-09-30T13:43:09;18.40;19.10
254;DHT22;590;48.772;8.846;2022-09-30T13:45:40;18.50;18.30
254;DHT22;590;48.772;8.846;2022-09-30T13:48:12;18.50;17.00
254;DHT22;590;48.772;8.846;2022-09-30T13:50:45;18.40;15.00
254;DHT22;590;48.772;8.846;2022-09-30T13:53:20;18.40;14.50
254;DHT22;590;48.772;8.846;2022-09-30T13:55:50;18.20;15.30
254;DHT22;590;48.772;8.846;2022-09-30T14:01:27;18.20;17.90
254;DHT22;590;48.772;8.846;2022-09-30T14:07:05;18.20;19.10
254;DHT22;590;48.772;8.846;2022-09-30T14:13:00;18.20;18.80
254;DHT22;590;48.772;8.846;2022-09-30T14:15:48;18.20;18.30
254;DHT22;590;48.772;8.846;2022-09-30T14:18:55;18.10;17.70
254;DHT22;590;48.772;8.846;2022-09-30T14:21:36;18.10;17.40
254;DHT22;590;48.772;8.846;2022-09-30T14:24:13;18.10;16.00
254;DHT22;590;48.772;8.846;2022-09-30T14:26:55;18.10;16.40
254;DHT22;590;48.772;8.846;2022-09-30T14:29:29;18.10;17.10
254;DHT22;590;48.772;8.846;2022-09-30T14:32:09;18.10;15.70
254;DHT22;590;48.772;8.846;2022-09-30T14:34:38;18.00;15.50
254;DHT22;590;48.772;8.846;2022-09-30T14:37:13;17.90;15.50
254;DHT22;590;48.772;8.846;2022-09-30T14:39:47;17.80;15.40
254;DHT22;590;48.772;8.846;2022-09-30T14:42:22;17.70;16.90
254;DHT22;590;48.772;8.846;2022-09-30T14:45:04;17.70;17.00
254;DHT22;590;48.772;8.846;2022-09-30T14:47:35;17.70;16.60
254;DHT22;590;48.772;8.846;2022-09-30T14:50:08;17.50;15.60
254;DHT22;590;48.772;8.846;2022-09-30T14:52:41;17.50;16.90
254;DHT22;590;48.772;8.846;2022-09-30T14:55:24;17.50;15.80
254;DHT22;590;48.772;8.846;2022-09-30T14:57:53;17.50;16.20
254;DHT22;590;48.772;8.846;2022-09-30T15:00:28;17.50;13.70
254;DHT22;590;48.772;8.846;2022-09-30T15:02:58;17.50;13.60
254;DHT22;590;48.772;8.846;2022-09-30T15:05:27;17.40;15.30
254;DHT22;590;48.772;8.846;2022-09-30T15:07:55;17.40;16.30
254;DHT22;590;48.772;8.846;2022-09-30T15:10:24;17.40;16.90
254;DHT22;590;48.772;8.846;2022-09-30T15:12:52;17.40;17.10
254;DHT22;590;48.772;8.846;2022-09-30T15:15:31;17.40;17.50
254;DHT22;590;48.772;8.846;2022-09-30T15:20:43;17.30;17.50
254;DHT22;590;48.772;8.846;2022-09-30T15:23:15;17.20;14.80
254;DHT22;590;48.772;8.846;2022-09-30T15:25:47;17.10;15.20
254;DHT22;590;48.772;8.846;2022-09-30T15:28:15;17.00;16.50
254;DHT22;590;48.772;8.846;2022-09-30T15:30:43;16.90;15.30
254;DHT22;590;48.772;8.846;2022-09-30T15:33:15;16.80;15.30
254;DHT22;590;48.772;8.846;2022-09-30T15:35:44;16.60;15.20
254;DHT22;590;48.772;8.846;2022-09-30T15:38:17;16.50;14.90
254;DHT22;590;48.772;8.846;2022-09-30T15:40:52;16.40;16.60
254;DHT22;590;48.772;8.846;2022-09-30T15:43:36;16.30;17.20
254;DHT22;590;48.772;8.846;2022-09-30T15:49:00;16.10;16.90
254;DHT22;590;48.772;8.846;2022-09-30T15:51:34;16.00;19.80
254;DHT22;590;48.772;8.846;2022-09-30T15:54:28;16.00;21.50
254;DHT22;590;48.772;8.846;2022-09-30T15:57:35;15.90;25.70
254;DHT22;590;48.772;8.846;2022-09-30T16:00:09;15.80;30.00
254;DHT22;590;48.772;8.846;2022-09-30T16:02:55;15.70;34.20
254;DHT22;590;48.772;8.846;2022-09-30T16:05:32;15.60;36.30
254;DHT22;590;48.772;8.846;2022-09-30T16:08:00;15.60;39.20
254;DHT22;590;48.772;8.846;2022-09-30T16:10:28;15.50;42.30
254;DHT22;590;48.772;8.846;2022-09-30T16:12:57;15.40;44.80
254;DHT22;590;48.772;8.846;2022-09-30T16:15:25;15.30;48.30
254;DHT22;590;48.772;8.846;2022-09-30T16:17:53;15.20;51.30
254;DHT22;590;48.772;8.846;2022-09-30T16:20:24;15.10;56.30
254;DHT22;590;48.772;8.846;2022-09-30T16:22:53;15.10;60.40
254;DHT22;590;48.772;8.846;2022-09-30T16:25:23;15.00;62.10
254;DHT22;590;48.772;8.846;2022-09-30T16:27:57;14.90;65.00
254;DHT22;590;48.772;8.846;2022-09-30T16:30:27;14.90;67.40
254;DHT22;590;48.772;8.846;2022-09-30T16:32:57;14.80;69.50
254;DHT22;590;48.772;8.846;2022-09-30T16:35:27;14.70;70.80
254;DHT22;590;48.772;8.846;2022-09-30T16:38:00;14.70;73.30
254;DHT22;590;48.772;8.846;2022-09-30T16:40:29;14.60;74.70
254;DHT22;590;48.772;8.846;2022-09-30T16:42:59;14.50;76.10
254;DHT22;590;48.772;8.846;2022-09-30T16:45:33;14.40;78.10
254;DHT22;590;48.772;8.846;2022-09-30T16:48:04;14.40;78.80
254;DHT22;590;48.772;8.846;2022-09-30T16:50:40;14.30;80.30
254;DHT22;590;48.772;8.846;2022-09-30T16:53:08;14.20;83.70
254;DHT22;590;48.772;8.846;2022-09-30T16:55:36;14.10;86.30
254;DHT22;590;48.772;8.846;2022-09-30T16:58:09;14.00;89.60
254;DHT22;590;48.772;8.846;2022-09-30T17:00:40;13.90;91.40
254;DHT22;590;48.772;8.846;2022-09-30T17:03:12;13.80;92.80
254;DHT22;590;48.772;8.846;2022-09-30T17:05:41;13.70;93.80
254;DHT22;590;48.772;8.846;2022-09-30T17:08:11;13.60;94.40
254;DHT22;590;48.772;8.846;2022-09-30T17:10:42;13.40;95.50
254;DHT22;590;48.772;8.846;2022-09-30T17:13:13;13.30;96.20
254;DHT22;590;48.772;8.846;2022-09-30T17:15:45;13.20;97.50
254;DHT22;590;48.772;8.846;2022-09-30T17:18:14;13.10;98.70
254;DHT22;590;48.772;8.846;2022-09-30T17:20:44;13.00;98.90
254;DHT22;590;48.772;8.846;2022-09-30T17:23:14;13.00;99.10
254;DHT22;590;48.772;8.846;2022-09-30T17:25:42;12.90;99.30
254;DHT22;590;48.772;8.846;2022-09-30T17:28:11;12.80;99.20
254;DHT22;590;48.772;8.846;2022-09-30T17:30:41;12.80;98.90
254;DHT22;590;48.772;8.846;2022-09-30T17:33:10;12.70;99.80
254;DHT22;590;48.772;8.846;2022-09-30T17:35:38;12.60;99.90
254;DHT22;590;48.772;8.846;2022-09-30T17:38:07;12.50;99.90
254;DHT22;590;48.772;8.846;2022-09-30T17:40:35;12.50;99.90
254;DHT22;590;48.772;8.846;2022-09-30T17:43:21;12.40;99.90
254;DHT22;590;48.772;8.846;2022-09-30T17:45:51;12.30;99.90
254;DHT22;590;48.772;8.846;2022-09-30T17:48:21;12.30;99.90
254;DHT22;590;48.772;8.846;2022-09-30T17:50:49;12.30;99.90
254;DHT22;590;48.772;8.846;2022-09-30T17:53:20;12.20;99.90
254;DHT22;590;48.772;8.846;2022-09-30T17:56:00;12.20;99.90
254;DHT22;590;48.772;8.846;2022-09-30T17:58:28;12.10;99.90